Time;durP1;ratioP1;P1;durP2;ratioP2;P2;SDS_P1;SDS_P2;PMS_P1;PMS_P2;Temp;Humidity;BMP_temperature;BMP_pressure;BME280_temperature;BME280_humidity;BME280_pressure;Samples;Min_cycle;Max_cycle;Signal;HPM_P1;HPM_P2
2023/07/01 00:01:36;;;;;;;;;;;;;;;16.34;100.00;96129.59;5105931;28;19965;-74
2023/07/01 00:04:02;;;;;;;;;;;;;;;16.30;100.00;96135.66;5105901;28;19990;-75
2023/07/01 00:06:28;;;;;;;;;;;;;;;16.27;100.00;96130.88;5105831;28;20221;-74
2023/07/01 00:08:54;;;;;;;;;;;;;;;16.23;100.00;96128.78;5106443;28;19940;-71
2023/07/01 00:11:20;;;;;;;;;;;;;;;16.21;100.00;96127.44;5105253;28;19932;-71
2023/07/01 00:13:46;;;;;;;;;;;;;;;16.16;100.00;96130.88;5105804;28;19931;-71
2023/07/01 00:16:13;;;;;;;;;;;;;;;16.13;100.00;96131.41;5104567;28;20015;-72
2023/07/01 00:18:40;;;;;;;;;;;;;;;16.10;100.00;96129.25;5106461;28;20231;-71
2023/07/01 00:21:06;;;;;;;;;;;;;;;16.08;100.00;96133.22;5105723;28;20121;-71
2023/07/01 00:23:33;;;;;;;;;;;;;;;16.01;100.00;96128.97;5105514;28;19952;-71
2023/07/01 00:25:59;;;;;;;;;;;;;;;15.97;100.00;96137.69;5106033;28;19945;-72
2023/07/01 00:28:25;;;;;;;;;;;;;;;15.92;100.00;96133.19;5105465;28;19949;-70
2023/07/01 00:30:51;;;;;;;;;;;;;;;15.87;100.00;96132.38;5105472;28;19940;-75
2023/07/01 00:33:16;;;;;;;;;;;;;;;15.81;100.00;96132.34;5106070;28;20233;-76
2023/07/01 00:35:42;;;;;;;;;;;;;;;15.77;100.00;96133.09;5104987;28;20010;-76
2023/07/01 00:38:08;;;;;;;;;;;;;;;15.72;100.00;96125.97;5104180;28;19938;-76
2023/07/01 00:40:34;;;;;;;;;;;;;;;15.67;100.00;96125.13;5105276;28;20246;-76
2023/07/01 00:43:00;;;;;;;;;;;;;;;15.62;100.00;96131.16;5104785;28;19970;-77
2023/07/01 00:45:26;;;;;;;;;;;;;;;15.58;100.00;96122.16;5105211;28;19936;-83
2023/07/01 00:47:52;;;;;;;;;;;;;;;15.53;100.00;96130.88;5087046;28;19945;-81
2023/07/01 00:50:17;;;;;;;;;;;;;;;15.48;100.00;96122.13;5104417;28;19935;-81
2023/07/01 00:52:43;;;;;;;;;;;;;;;15.45;100.00;96119.97;5103885;28;20031;-81
2023/07/01 00:55:10;;;;;;;;;;;;;;;15.41;100.00;96112.59;5105521;28;20158;-81
2023/07/01 00:57:36;;;;;;;;;;;;;;;15.37;100.00;96119.44;5104926;28;20014;-80
2023/07/01 01:00:04;;;;;;;;;;;;;;;15.33;100.00;96117.53;5104049;28;19968;-80
2023/07/01 01:02:37;;;;;;;;;;;;;;;15.22;100.00;96120.16;5104743;28;19968;-79
2023/07/01 01:05:11;;;;;;;;;;;;;;;15.14;100.00;96112.69;5104985;28;19935;-70
2023/07/01 01:07:52;;;;;;;;;;;;;;;15.12;100.00;96113.97;5104211;28;19944;-71
2023/07/01 01:10:21;;;;;;;;;;;;;;;15.09;100.00;96104.72;5105361;28;19962;-72
2023/07/01 01:12:48;;;;;;;;;;;;;;;15.07;100.00;96106.81;5104723;28;19942;-70
2023/07/01 01:15:14;;;;;;;;;;;;;;;15.05;100.00;96106.28;5103517;28;19948;-71
2023/07/01 01:17:42;;;;;;;;;;;;;;;15.04;100.00;96101.28;5103417;28;19948;-72
2023/07/01 01:20:13;;;;;;;;;;;;;;;15.02;100.00;96106.81;5105338;28;20234;-72
2023/07/01 01:22:54;;;;;;;;;;;;;;;14.95;100.00;96103.56;5103452;28;19953;-72
2023/07/01 01:25:27;;;;;;;;;;;;;;;14.91;100.00;96098.03;5104264;28;19935;-75
2023/07/01 01:27:57;;;;;;;;;;;;;;;14.88;100.00;96108.28;5105189;28;19970;-73
2023/07/01 01:30:23;;;;;;;;;;;;;;;14.84;100.00;96101.91;5104398;28;20127;-71
2023/07/01 01:32:49;;;;;;;;;;;;;;;14.81;100.00;96103.22;5104948;28;19950;-74
2023/07/01 01:35:15;;;;;;;;;;;;;;;14.77;100.00;96097.66;5104323;28;19940;-74
2023/07/01 01:37:44;;;;;;;;;;;;;;;14.77;100.00;96100.28;5105101;28;20214;-73
2023/07/01 01:40:14;;;;;;;;;;;;;;;14.76;100.00;96096.06;5103697;28;19941;-72
2023/07/01 01:42:41;;;;;;;;;;;;;;;14.74;100.00;96092.06;5103107;28;20017;-77
2023/07/01 01:45:07;;;;;;;;;;;;;;;14.71;100.00;96089.94;5105038;28;20088;-70
2023/07/01 01:47:34;;;;;;;;;;;;;;;14.73;100.00;96101.06;5104246;28;19933;-70
2023/07/01 01:50:01;;;;;;;;;;;;;;;14.68;100.00;96095.72;5105002;28;20096;-71
2023/07/01 01:52:27;;;;;;;;;;;;;;;14.66;100.00;96093.34;5103768;28;19945;-70
2023/07/01 01:54:54;;;;;;;;;;;;;;;14.64;100.00;96086.75;5103036;28;19940;-70
2023/07/01 01:57:20;;;;;;;;;;;;;;;14.64;100.00;96092.00;5104931;28;19938;-71
2023/07/01 02:02:42;;;;;;;;;;;;;;;14.63;100.00;96093.84;5496961;23;19970;-71
2023/07/01 02:05:08;;;;;;;;;;;;;;;14.62;100.00;96084.34;4989821;23;20183;-73
2023/07/01 02:07:34;;;;;;;;;;;;;;;14.61;100.00;96088.00;4966165;29;19967;-73
2023/07/01 02:10:00;;;;;;;;;;;;;;;14.58;100.00;96085.88;4965981;29;20272;-73
2023/07/01 02:12:26;;;;;;;;;;;;;;;14.55;100.00;96086.34;4965550;29;19962;-72
2023/07/01 02:14:52;;;;;;;;;;;;;;;14.52;100.00;96079.75;4965879;29;20230;-73
2023/07/01 02:17:18;;;;;;;;;;;;;;;14.50;100.00;96078.41;4965978;29;20237;-72
2023/07/01 02:19:43;;;;;;;;;;;;;;;14.45;100.00;96080.97;4965278;28;19957;-82
2023/07/01 02:22:09;;;;;;;;;;;;;;;14.39;100.00;96075.69;4969087;29;20006;-76
2023/07/01 02:24:35;;;;;;;;;;;;;;;14.36;100.00;96081.47;4969926;29;20246;-76
2023/07/01 02:27:01;;;;;;;;;;;;;;;14.32;100.00;96080.38;4968818;29;19960;-76
2023/07/01 02:29:27;;;;;;;;;;;;;;;14.30;100.00;96079.84;4969693;29;19960;-76
2023/07/01 02:31:56;;;;;;;;;;;;;;;14.26;100.00;96081.38;4953055;29;20254;-76
2023/07/01 02:34:26;;;;;;;;;;;;;;;14.21;100.00;96079.50;4969297;29;19971;-73
2023/07/01 02:36:52;;;;;;;;;;;;;;;14.12;100.00;96080.97;4968359;29;20132;-70
2023/07/01 02:39:18;;;;;;;;;;;;;;;14.08;100.00;96079.88;4967961;29;19971;-75
2023/07/01 02:41:44;;;;;;;;;;;;;;;14.08;100.00;96084.34;4967856;29;19964;-75
2023/07/01 02:44:11;;;;;;;;;;;;;;;14.02;100.00;96078.22;4969378;29;19971;-75
2023/07/01 02:46:37;;;;;;;;;;;;;;;13.99;100.00;96084.78;4968029;29;20156;-74
2023/07/01 02:49:03;;;;;;;;;;;;;;;13.94;100.00;96076.84;4969324;29;20129;-76
2023/07/01 02:51:29;;;;;;;;;;;;;;;13.92;100.00;96080.75;4969438;29;19940;-76
2023/07/01 02:53:54;;;;;;;;;;;;;;;13.92;100.00;96083.38;4969233;29;19976;-74
2023/07/01 02:56:20;;;;;;;;;;;;;;;13.93;100.00;96092.91;4969163;29;19996;-70
2023/07/01 02:58:46;;;;;;;;;;;;;;;13.93;100.00;96082.38;4969219;29;19967;-71
2023/07/01 03:01:13;;;;;;;;;;;;;;;13.95;100.00;96090.81;4967533;29;19957;-71
2023/07/01 03:03:40;;;;;;;;;;;;;;;13.96;100.00;96092.41;4968703;29;19964;-70
2023/07/01 03:06:06;;;;;;;;;;;;;;;13.94;100.00;96090.03;4949557;29;19954;-70
2023/07/01 03:08:32;;;;;;;;;;;;;;;13.94;100.00;96097.94;4949893;29;20236;-70
2023/07/01 03:10:58;;;;;;;;;;;;;;;13.95;100.00;96088.97;4949318;29;19998;-69
2023/07/01 03:13:24;;;;;;;;;;;;;;;13.97;100.00;96092.16;4949785;29;19986;-69
2023/07/01 03:15:50;;;;;;;;;;;;;;;14.00;100.00;96091.66;4949649;29;19956;-72
2023/07/01 03:18:16;;;;;;;;;;;;;;;13.99;100.00;96094.56;4948949;29;19962;-80
2023/07/01 03:20:41;;;;;;;;;;;;;;;13.99;100.00;96103.25;4949554;29;20002;-83
2023/07/01 03:23:07;;;;;;;;;;;;;;;14.01;100.00;96095.91;4948569;29;19964;-77
2023/07/01 03:25:35;;;;;;;;;;;;;;;14.00;100.00;96096.91;4949669;29;19966;-83
2023/07/01 03:28:01;;;;;;;;;;;;;;;14.01;100.00;96100.38;4949037;29;19957;-82
2023/07/01 03:30:30;;;;;;;;;;;;;;;13.99;100.00;96099.81;4949152;29;19969;-82
2023/07/01 03:32:56;;;;;;;;;;;;;;;13.99;100.00;96091.91;4948999;29;20256;-71
2023/07/01 03:35:22;;;;;;;;;;;;;;;13.98;100.00;96096.41;4947854;29;19969;-81
2023/07/01 03:37:48;;;;;;;;;;;;;;;14.00;100.00;96089.00;4947776;29;19957;-81
2023/07/01 03:40:14;;;;;;;;;;;;;;;13.99;100.00;96076.88;4947518;29;19967;-83
2023/07/01 03:42:40;;;;;;;;;;;;;;;13.99;100.00;96079.53;4947688;29;19967;-82
2023/07/01 03:45:07;;;;;;;;;;;;;;;14.00;100.00;96073.19;4947680;29;19983;-84
2023/07/01 03:47:43;;;;;;;;;;;;;;;14.04;100.00;96073.50;4949157;29;19965;-86
2023/07/01 03:50:10;;;;;;;;;;;;;;;14.04;100.00;96073.50;4949270;29;20153;-84
2023/07/01 03:52:36;;;;;;;;;;;;;;;14.05;100.00;96061.09;4947994;29;19964;-77
2023/07/01 03:55:06;;;;;;;;;;;;;;;14.06;100.00;96062.72;4948502;29;19963;-69
2023/07/01 03:57:33;;;;;;;;;;;;;;;14.07;100.00;96065.13;4948644;29;19959;-69
2023/07/01 03:59:59;;;;;;;;;;;;;;;14.07;100.00;96054.56;4948290;29;20280;-69
2023/07/01 04:02:25;;;;;;;;;;;;;;;14.08;100.00;96061.41;4948812;29;19958;-69
2023/07/01 04:04:51;;;;;;;;;;;;;;;14.08;100.00;96064.06;4948484;29;19970;-69
2023/07/01 04:07:21;;;;;;;;;;;;;;;14.06;100.00;96066.13;4948848;29;19959;-70
2023/07/01 04:09:50;;;;;;;;;;;;;;;14.08;100.00;96066.69;4948842;29;19961;-70
2023/07/01 04:12:16;;;;;;;;;;;;;;;14.08;100.00;96063.25;4948684;29;19952;-84
2023/07/01 04:14:42;;;;;;;;;;;;;;;14.09;100.00;96068.28;4947223;29;19957;-81
2023/07/01 04:17:08;;;;;;;;;;;;;;;14.11;100.00;96068.03;4948793;29;19975;-81
2023/07/01 04:19:34;;;;;;;;;;;;;;;14.10;100.00;96067.25;4948299;29;20002;-82
2023/07/01 04:22:00;;;;;;;;;;;;;;;14.10;100.00;96058.53;4948257;29;19960;-82
2023/07/01 04:24:26;;;;;;;;;;;;;;;14.12;100.00;96067.00;4948582;29;19965;-84
2023/07/01 04:26:52;;;;;;;;;;;;;;;14.13;100.00;96074.66;4948383;29;19953;-79
2023/07/01 04:29:18;;;;;;;;;;;;;;;14.13;100.00;96079.94;4948204;29;19964;-69
2023/07/01 04:31:43;;;;;;;;;;;;;;;14.15;100.00;96075.22;4948064;29;19961;-70
2023/07/01 04:34:09;;;;;;;;;;;;;;;14.21;100.00;96076.03;4948019;29;19961;-70
2023/07/01 04:36:35;;;;;;;;;;;;;;;14.28;100.00;96068.72;4948207;29;19958;-70
2023/07/01 04:39:01;;;;;;;;;;;;;;;14.40;100.00;96071.19;4948027;29;19978;-69
2023/07/01 04:41:27;;;;;;;;;;;;;;;14.50;100.00;96067.84;4948099;29;20301;-69
2023/07/01 04:43:53;;;;;;;;;;;;;;;14.58;100.00;96065.56;4947484;29;19973;-70
2023/07/01 04:46:19;;;;;;;;;;;;;;;14.66;100.00;96071.41;4948005;29;19983;-71
2023/07/01 04:48:45;;;;;;;;;;;;;;;14.72;100.00;96070.41;4948210;29;19960;-69
2023/07/01 04:51:10;;;;;;;;;;;;;;;14.76;100.00;96074.13;4947956;29;19955;-72
2023/07/01 04:53:37;;;;;;;;;;;;;;;14.81;100.00;96067.06;4947472;29;19962;-72
2023/07/01 04:56:03;;;;;;;;;;;;;;;14.89;100.00;96064.97;4948001;29;19953;-72
2023/07/01 04:58:29;;;;;;;;;;;;;;;14.97;100.00;96070.59;4947353;29;19954;-72
2023/07/01 05:00:55;;;;;;;;;;;;;;;15.07;100.00;96069.06;4947756;29;19976;-72
2023/07/01 05:03:21;;;;;;;;;;;;;;;15.15;100.00;96063.31;4947482;29;19968;-72
2023/07/01 05:05:47;;;;;;;;;;;;;;;15.25;100.00;96057.28;4946351;29;20002;-71
2023/07/01 05:08:13;;;;;;;;;;;;;;;15.38;100.00;96052.31;4946256;29;19963;-71
2023/07/01 05:10:39;;;;;;;;;;;;;;;15.51;100.00;96058.19;4947576;29;19949;-72
2023/07/01 05:13:04;;;;;;;;;;;;;;;15.65;100.00;96054.00;4947648;29;19955;-71
2023/07/01 05:15:30;;;;;;;;;;;;;;;15.78;100.00;96048.25;4947492;29;20008;-72
2023/07/01 05:17:56;;;;;;;;;;;;;;;15.83;100.00;96050.94;4947515;29;19977;-72
2023/07/01 05:20:22;;;;;;;;;;;;;;;15.95;100.00;96048.03;4947460;29;19953;-72
2023/07/01 05:22:48;;;;;;;;;;;;;;;16.13;100.00;96046.75;4946557;29;20257;-74
2023/07/01 05:25:14;;;;;;;;;;;;;;;16.35;100.00;96045.69;4947344;29;19962;-71
2023/07/01 05:27:40;;;;;;;;;;;;;;;16.50;100.00;96040.41;4947254;29;19961;-70
2023/07/01 05:30:06;;;;;;;;;;;;;;;16.65;99.80;96026.34;4947284;29;19956;-70
2023/07/01 05:32:32;;;;;;;;;;;;;;;16.79;100.00;96032.69;4947424;29;19956;-70
2023/07/01 05:34:57;;;;;;;;;;;;;;;16.98;100.00;96032.16;4947101;29;19956;-70
2023/07/01 05:37:23;;;;;;;;;;;;;;;17.14;96.63;96022.34;4945819;29;19969;-70
2023/07/01 05:39:49;;;;;;;;;;;;;;;17.25;95.43;96026.53;4947281;29;19951;-70
2023/07/01 05:42:15;;;;;;;;;;;;;;;17.40;94.17;96023.81;4945853;29;19973;-71
2023/07/01 05:44:41;;;;;;;;;;;;;;;17.51;92.29;96013.94;4947105;29;20261;-72
2023/07/01 05:47:06;;;;;;;;;;;;;;;17.58;91.64;96017.13;4946275;29;19946;-72
2023/07/01 05:49:32;;;;;;;;;;;;;;;17.72;93.18;96022.59;4947385;29;19960;-71
2023/07/01 05:51:58;;;;;;;;;;;;;;;17.91;93.51;96014.84;4946746;29;19988;-72
2023/07/01 05:54:24;;;;;;;;;;;;;;;18.12;93.55;96017.34;4946194;29;19964;-71
2023/07/01 05:56:50;;;;;;;;;;;;;;;18.34;90.75;96007.09;4949454;29;19954;-71
2023/07/01 05:59:16;;;;;;;;;;;;;;;18.40;86.39;95974.13;4950886;29;19956;-70
2023/07/01 06:01:41;;;;;;;;;;;;;;;18.43;88.20;95999.31;4951318;29;19959;-71
2023/07/01 06:04:07;;;;;;;;;;;;;;;18.46;88.66;96001.44;4950630;29;19965;-70
2023/07/01 06:06:33;;;;;;;;;;;;;;;18.56;85.77;95990.72;4949754;29;19962;-69
2023/07/01 06:08:59;;;;;;;;;;;;;;;18.62;86.57;95997.56;4950742;29;20004;-70
2023/07/01 06:11:25;;;;;;;;;;;;;;;18.72;83.68;95967.47;4950823;29;20127;-70
2023/07/01 06:13:51;;;;;;;;;;;;;;;18.79;85.01;95977.78;4949438;29;19974;-71
2023/07/01 06:16:17;;;;;;;;;;;;;;;18.83;81.71;95970.81;4950552;29;19963;-70
2023/07/01 06:18:42;;;;;;;;;;;;;;;18.89;84.09;95990.16;4950854;29;19981;-69
2023/07/01 06:21:09;;;;;;;;;;;;;;;19.00;79.18;95952.59;4949598;29;20188;-70
2023/07/01 06:23:35;;;;;;;;;;;;;;;19.20;78.65;95951.53;4950562;29;19975;-70
2023/07/01 06:26:01;;;;;;;;;;;;;;;19.41;77.55;95944.09;4948863;29;19967;-71
2023/07/01 06:28:27;;;;;;;;;;;;;;;19.51;73.84;95918.44;4950262;29;19986;-70
2023/07/01 06:30:53;;;;;;;;;;;;;;;19.52;72.73;95904.06;4950254;29;20230;-71
2023/07/01 06:33:19;;;;;;;;;;;;;;;19.52;73.53;95915.50;4950253;29;20239;-71
2023/07/01 06:35:45;;;;;;;;;;;;;;;19.58;74.52;95932.16;4950167;29;19976;-70
2023/07/01 06:38:11;;;;;;;;;;;;;;;19.60;70.19;95901.53;4948577;29;19965;-71
2023/07/01 06:40:37;;;;;;;;;;;;;;;19.59;72.70;95915.13;4950296;29;19955;-71
2023/07/01 06:43:03;;;;;;;;;;;;;;;19.64;75.93;95942.44;4949716;29;20203;-71
2023/07/01 06:45:30;;;;;;;;;;;;;;;19.64;71.05;95921.16;4948561;29;19969;-71
2023/07/01 06:47:56;;;;;;;;;;;;;;;19.68;74.66;95927.50;4949165;29;19949;-71
2023/07/01 06:50:22;;;;;;;;;;;;;;;19.67;70.47;95901.97;4948881;29;19962;-71
2023/07/01 06:52:48;;;;;;;;;;;;;;;19.70;69.77;95902.47;4948949;29;19957;-70
2023/07/01 06:55:14;;;;;;;;;;;;;;;19.87;72.33;95905.44;4950072;29;19960;-71
2023/07/01 06:57:43;;;;;;;;;;;;;;;20.01;68.61;95887.66;4950230;29;19954;-72
2023/07/01 07:00:13;;;;;;;;;;;;;;;20.19;70.74;95903.84;4948668;29;19974;-78
2023/07/01 07:02:39;;;;;;;;;;;;;;;20.28;70.38;95902.88;4948450;29;19955;-78
2023/07/01 07:05:06;;;;;;;;;;;;;;;20.43;69.90;95891.19;4932171;29;19972;-78
2023/07/01 07:07:32;;;;;;;;;;;;;;;20.52;68.95;95890.50;4947690;29;19962;-75
2023/07/01 07:09:58;;;;;;;;;;;;;;;20.47;68.03;95891.34;4948311;29;19966;-73
2023/07/01 07:12:24;;;;;;;;;;;;;;;20.55;69.57;95906.66;4949679;29;20018;-73
2023/07/01 07:14:50;;;;;;;;;;;;;;;20.71;69.06;95909.09;4949567;29;19947;-74
2023/07/01 07:17:16;;;;;;;;;;;;;;;20.87;68.60;95889.03;4949527;29;19999;-81
2023/07/01 07:19:41;;;;;;;;;;;;;;;20.81;66.30;95871.56;4948407;29;19956;-76
2023/07/01 07:22:07;;;;;;;;;;;;;;;20.88;68.61;95902.06;4949932;29;20004;-74
2023/07/01 07:24:33;;;;;;;;;;;;;;;21.05;68.71;95898.00;4949226;29;19964;-76
2023/07/01 07:27:00;;;;;;;;;;;;;;;21.03;62.30;95839.66;4949177;29;19961;-75
2023/07/01 07:29:26;;;;;;;;;;;;;;;21.08;68.04;95890.22;4949488;29;19961;-82
2023/07/01 07:31:52;;;;;;;;;;;;;;;21.07;63.67;95861.16;4949991;29;19964;-82
2023/07/01 07:34:18;;;;;;;;;;;;;;;20.97;62.49;95872.03;4949481;29;19960;-72
2023/07/01 07:36:44;;;;;;;;;;;;;;;20.87;63.41;95886.34;4949322;29;19956;-71
2023/07/01 07:39:13;;;;;;;;;;;;;;;20.75;62.81;95891.41;4949061;29;20129;-72
2023/07/01 07:41:39;;;;;;;;;;;;;;;20.65;66.15;95922.47;4949190;29;20140;-79
2023/07/01 07:44:05;;;;;;;;;;;;;;;20.76;65.14;95927.63;4948231;29;19983;-79
2023/07/01 07:46:32;;;;;;;;;;;;;;;20.76;67.03;95931.06;4949015;29;19960;-77
2023/07/01 07:48:57;;;;;;;;;;;;;;;20.78;66.79;95926.25;4948242;29;19960;-79
2023/07/01 07:51:23;;;;;;;;;;;;;;;20.83;68.44;95931.50;4947947;29;20175;-71
2023/07/01 07:53:49;;;;;;;;;;;;;;;21.02;65.25;95919.91;4948881;29;20034;-78
2023/07/01 07:56:15;;;;;;;;;;;;;;;21.19;62.85;95906.00;4949226;29;19955;-76
2023/07/01 07:58:41;;;;;;;;;;;;;;;21.09;61.93;95920.31;4949507;29;20163;-76
2023/07/01 08:01:07;;;;;;;;;;;;;;;21.09;59.14;95928.31;4947631;29;20144;-78
2023/07/01 08:03:33;;;;;;;;;;;;;;;21.18;58.53;95920.41;4948113;29;19963;-75
2023/07/01 08:05:58;;;;;;;;;;;;;;;21.09;57.45;95926.44;4947943;29;19954;-76
2023/07/01 08:08:24;;;;;;;;;;;;;;;20.94;59.80;95931.28;4931638;29;19967;-74
2023/07/01 08:10:50;;;;;;;;;;;;;;;20.87;57.93;95931.66;4948679;29;19956;-82
2023/07/01 08:13:16;;;;;;;;;;;;;;;20.96;58.84;95929.13;4948578;29;19960;-74
2023/07/01 08:15:42;;;;;;;;;;;;;;;20.93;59.40;95929.69;4948757;29;19943;-78
2023/07/01 08:18:08;;;;;;;;;;;;;;;21.04;60.47;95931.06;4930962;29;19964;-77
2023/07/01 08:20:34;;;;;;;;;;;;;;;21.12;59.70;95932.25;4947415;29;20268;-77
2023/07/01 08:23:00;;;;;;;;;;;;;;;21.19;58.85;95925.44;4948441;29;19959;-77
2023/07/01 08:25:26;;;;;;;;;;;;;;;21.13;57.21;95909.84;4946802;29;20004;-73
2023/07/01 08:27:53;;;;;;;;;;;;;;;21.09;57.92;95923.75;4948030;29;20026;-73
2023/07/01 08:30:19;;;;;;;;;;;;;;;21.13;59.28;95910.63;4948226;29;19954;-72
2023/07/01 08:32:44;;;;;;;;;;;;;;;21.23;58.05;95909.63;4947998;29;19964;-72
2023/07/01 08:35:10;;;;;;;;;;;;;;;21.25;56.98;95910.09;4947822;29;20047;-72
2023/07/01 08:37:36;;;;;;;;;;;;;;;21.40;58.85;95912.47;4948041;29;19964;-72
2023/07/01 08:40:02;;;;;;;;;;;;;;;21.34;57.74;95915.53;4948117;29;19952;-73
2023/07/01 08:42:35;;;;;;;;;;;;;;;21.21;57.58;95917.16;4948073;29;19956;-70
2023/07/01 08:45:01;;;;;;;;;;;;;;;21.09;54.26;95907.00;4947534;29;19967;-70
2023/07/01 08:47:28;;;;;;;;;;;;;;;21.09;55.44;95905.09;4948022;29;19962;-73
2023/07/01 08:49:55;;;;;;;;;;;;;;;21.09;55.72;95901.66;4947583;29;20254;-72
2023/07/01 08:52:21;;;;;;;;;;;;;;;21.13;56.06;95902.63;4947805;29;19957;-72
2023/07/01 08:54:48;;;;;;;;;;;;;;;21.12;53.51;95886.94;4930379;29;19984;-71
2023/07/01 08:57:14;;;;;;;;;;;;;;;21.08;54.25;95886.72;4947734;29;20155;-71
2023/07/01 08:59:42;;;;;;;;;;;;;;;21.12;55.33;95901.03;4946362;29;19966;-73
2023/07/01 09:02:08;;;;;;;;;;;;;;;21.16;54.37;95890.56;4947612;29;20240;-71
2023/07/01 09:04:37;;;;;;;;;;;;;;;21.18;53.35;95883.06;4946408;29;19973;-69
2023/07/01 09:07:05;;;;;;;;;;;;;;;21.20;52.86;95888.91;4946665;29;21147;-71
2023/07/01 09:09:31;;;;;;;;;;;;;;;21.37;53.09;95877.59;4946997;29;19959;-72
2023/07/01 09:11:57;;;;;;;;;;;;;;;21.59;52.46;95876.88;4947741;29;20145;-71
2023/07/01 09:14:23;;;;;;;;;;;;;;;21.68;52.44;95867.81;4947619;29;20185;-70
2023/07/01 09:16:49;;;;;;;;;;;;;;;21.79;52.51;95875.59;4946953;29;19978;-71
2023/07/01 09:19:17;;;;;;;;;;;;;;;21.82;50.12;95867.00;4947633;29;20002;-71
2023/07/01 09:21:43;;;;;;;;;;;;;;;21.82;48.58;95877.66;4947457;29;19960;-72
2023/07/01 09:24:10;;;;;;;;;;;;;;;21.95;47.77;95878.69;4947122;29;19964;-73
2023/07/01 09:26:36;;;;;;;;;;;;;;;22.02;47.89;95884.38;4947520;29;19978;-71
2023/07/01 09:29:09;;;;;;;;;;;;;;;22.15;47.39;95883.50;4945838;29;19961;-72
2023/07/01 09:31:45;;;;;;;;;;;;;;;22.19;50.40;95889.03;4947430;29;19979;-71
2023/07/01 09:34:11;;;;;;;;;;;;;;;22.09;48.75;95877.53;4947199;29;19959;-72
2023/07/01 09:36:37;;;;;;;;;;;;;;;22.17;49.20;95884.00;4947106;29;20275;-71
2023/07/01 09:39:05;;;;;;;;;;;;;;;22.27;48.64;95874.97;4947225;29;19965;-71
2023/07/01 09:41:30;;;;;;;;;;;;;;;22.29;46.68;95872.78;4947150;29;19962;-69
2023/07/01 09:43:57;;;;;;;;;;;;;;;22.26;47.23;95871.53;4945515;29;20240;-73
2023/07/01 09:46:23;;;;;;;;;;;;;;;22.40;48.29;95876.75;4946679;29;20136;-73
2023/07/01 09:48:51;;;;;;;;;;;;;;;22.56;50.20;95882.50;4946716;29;19970;-72
2023/07/01 09:51:18;;;;;;;;;;;;;;;22.61;49.20;95870.88;4946735;29;20267;-72
2023/07/01 09:53:43;;;;;;;;;;;;;;;22.75;46.21;95857.41;4946770;29;20246;-72
2023/07/01 09:56:09;;;;;;;;;;;;;;;22.84;46.30;95860.88;4946456;29;19963;-72
2023/07/01 09:58:35;;;;;;;;;;;;;;;22.87;48.12;95861.06;4945697;29;19956;-71
2023/07/01 10:01:01;;;;;;;;;;;;;;;22.84;46.94;95864.34;4945550;29;19973;-76
2023/07/01 10:03:27;;;;;;;;;;;;;;;22.73;46.06;95852.34;4929879;29;19959;-72
2023/07/01 10:05:54;;;;;;;;;;;;;;;22.68;46.90;95858.63;4946192;29;20004;-71
2023/07/01 10:08:20;;;;;;;;;;;;;;;22.76;43.22;95845.59;4945984;29;19973;-72
2023/07/01 10:11:05;;;;;;;;;;;;;;;22.70;44.86;95851.09;4946230;29;19957;-71
2023/07/01 10:13:32;;;;;;;;;;;;;;;22.60;44.29;95855.94;4946239;29;19968;-72
2023/07/01 10:16:01;;;;;;;;;;;;;;;22.63;43.30;95845.41;4945913;29;19962;-71
2023/07/01 10:18:28;;;;;;;;;;;;;;;22.53;42.07;95850.25;4946665;29;19983;-71
2023/07/01 10:21:14;;;;;;;;;;;;;;;22.45;44.64;95857.16;4946580;29;20261;-70
2023/07/01 10:23:44;;;;;;;;;;;;;;;22.50;44.42;95852.44;4945170;29;19964;-70
2023/07/01 10:26:29;;;;;;;;;;;;;;;22.63;44.21;95850.75;4945667;29;19963;-69
2023/07/01 10:28:55;;;;;;;;;;;;;;;22.86;42.29;95845.31;4946686;29;20143;-70
2023/07/01 10:31:21;;;;;;;;;;;;;;;22.96;42.13;95846.91;4946610;29;19956;-71
2023/07/01 10:33:46;;;;;;;;;;;;;;;23.23;43.40;95840.53;4946655;29;19957;-70
2023/07/01 10:36:17;;;;;;;;;;;;;;;23.56;41.74;95842.72;4946257;29;19963;-73
2023/07/01 10:38:43;;;;;;;;;;;;;;;23.82;39.70;95840.06;4946648;29;19972;-76
2023/07/01 10:41:09;;;;;;;;;;;;;;;24.01;39.51;95843.16;4945326;29;19955;-76
2023/07/01 10:43:39;;;;;;;;;;;;;;;23.89;41.20;95835.78;4948357;29;19963;-76
2023/07/01 10:46:23;;;;;;;;;;;;;;;23.73;40.07;95833.88;4949431;29;19965;-77
2023/07/01 10:49:01;;;;;;;;;;;;;;;23.71;42.57;95839.56;4950186;29;19964;-77
2023/07/01 10:51:28;;;;;;;;;;;;;;;23.75;41.28;95834.34;4948852;29;19968;-76
2023/07/01 10:53:59;;;;;;;;;;;;;;;23.91;41.72;95830.88;4949835;29;20146;-72
2023/07/01 10:56:27;;;;;;;;;;;;;;;24.29;40.96;95834.72;4932984;29;19966;-71
2023/07/01 10:59:12;;;;;;;;;;;;;;;24.61;41.46;95816.47;4949792;29;19956;-71
2023/07/01 11:01:42;;;;;;;;;;;;;;;24.86;41.51;95828.16;4949897;29;19959;-71
2023/07/01 11:04:08;;;;;;;;;;;;;;;24.89;41.03;95828.31;4950089;29;19956;-71
2023/07/01 11:06:46;;;;;;;;;;;;;;;24.81;41.28;95817.66;4949268;29;20334;-73
2023/07/01 11:09:13;;;;;;;;;;;;;;;24.63;40.99;95825.78;4950184;29;20232;-72
2023/07/01 11:11:38;;;;;;;;;;;;;;;24.46;40.65;95810.56;4948414;29;20141;-71
2023/07/01 11:14:06;;;;;;;;;;;;;;;24.16;41.87;95828.47;4949967;29;19971;-72
2023/07/01 11:16:33;;;;;;;;;;;;;;;23.98;43.20;95826.94;4949630;29;19956;-72
2023/07/01 11:19:03;;;;;;;;;;;;;;;23.89;43.01;95821.59;4948487;29;19993;-72
2023/07/01 11:21:29;;;;;;;;;;;;;;;23.77;42.37;95814.25;4949494;29;20038;-71
2023/07/01 11:23:56;;;;;;;;;;;;;;;23.82;44.15;95821.31;4949739;29;19957;-72
2023/07/01 11:26:25;;;;;;;;;;;;;;;23.82;44.52;95819.41;4948017;29;20298;-72
2023/07/01 11:28:51;;;;;;;;;;;;;;;23.64;42.80;95817.84;4949581;29;19963;-71
2023/07/01 11:31:18;;;;;;;;;;;;;;;23.36;43.18;95825.44;4947924;29;19959;-72
2023/07/01 11:33:45;;;;;;;;;;;;;;;23.14;43.80;95839.72;4948432;29;19949;-76
2023/07/01 11:36:17;;;;;;;;;;;;;;;22.99;45.38;95836.38;4932582;29;19968;-72
2023/07/01 11:38:45;;;;;;;;;;;;;;;22.90;45.74;95844.38;4948960;29;19959;-71
2023/07/01 11:41:12;;;;;;;;;;;;;;;22.81;45.78;95838.22;4949443;29;19957;-71
2023/07/01 11:43:38;;;;;;;;;;;;;;;22.67;45.99;95840.25;4948940;29;19960;-71
2023/07/01 11:46:04;;;;;;;;;;;;;;;22.48;45.86;95841.28;4948718;29;19970;-71
2023/07/01 11:48:31;;;;;;;;;;;;;;;22.34;47.87;95845.91;4949608;29;20153;-71
2023/07/01 11:50:57;;;;;;;;;;;;;;;22.28;47.08;95839.94;4949013;29;19955;-76
2023/07/01 11:53:24;;;;;;;;;;;;;;;22.28;47.39;95839.94;4946441;29;20262;-71
2023/07/01 11:55:50;;;;;;;;;;;;;;;22.21;47.41;95839.56;4931843;29;20144;-71
2023/07/01 11:58:29;;;;;;;;;;;;;;;22.01;48.84;95837.44;4948908;29;19960;-72
2023/07/01 12:00:55;;;;;;;;;;;;;;;21.88;48.47;95839.06;4948815;29;19971;-71
2023/07/01 12:03:21;;;;;;;;;;;;;;;21.81;48.50;95846.72;4948748;29;20140;-72
2023/07/01 12:05:47;;;;;;;;;;;;;;;21.74;49.49;95846.38;4948937;29;19972;-72
2023/07/01 12:08:13;;;;;;;;;;;;;;;21.68;50.05;95851.03;4948652;29;20003;-71
2023/07/01 12:10:42;;;;;;;;;;;;;;;21.61;50.34;95851.47;4947624;29;19960;-76
2023/07/01 12:13:26;;;;;;;;;;;;;;;21.55;50.97;95850.00;4947425;29;19958;-76
2023/07/01 12:15:56;;;;;;;;;;;;;;;21.48;52.84;95845.09;4948217;29;19971;-76
2023/07/01 12:18:22;;;;;;;;;;;;;;;21.42;51.98;95845.53;4947122;29;20239;-76
2023/07/01 12:20:48;;;;;;;;;;;;;;;21.36;52.34;95842.13;4948382;29;19955;-77
2023/07/01 12:23:14;;;;;;;;;;;;;;;21.34;51.95;95846.19;4930960;29;20003;-77
2023/07/01 12:25:40;;;;;;;;;;;;;;;21.34;52.10;95836.31;4948053;29;20011;-71
2023/07/01 12:28:05;;;;;;;;;;;;;;;21.31;52.18;95842.25;4948476;29;19960;-69
2023/07/01 12:30:31;;;;;;;;;;;;;;;21.26;53.03;95842.38;4947884;29;19997;-72
2023/07/01 12:32:57;;;;;;;;;;;;;;;21.26;54.62;95845.81;4948410;29;19953;-73
2023/07/01 12:35:23;;;;;;;;;;;;;;;21.23;53.08;95841.09;4947636;29;20151;-73
2023/07/01 12:37:49;;;;;;;;;;;;;;;21.18;53.19;95835.06;4947905;29;19974;-72
2023/07/01 12:40:15;;;;;;;;;;;;;;;21.11;52.56;95840.03;4947743;29;20030;-73
2023/07/01 12:42:41;;;;;;;;;;;;;;;20.97;53.84;95840.06;4947945;29;19956;-72
2023/07/01 12:45:07;;;;;;;;;;;;;;;20.95;53.75;95840.34;4948405;29;19963;-69